Terminal Aerodrome Forecast
Issued by NWS Northern Indiana

Home | Current Version | Previous Version | Text Only | Print | Product List | Glossary On
Versions: 1 2 3 4 5 6 7 8 9 10 11 12 13 14 15 16 17 18
847
FTUS43 KIWX 221723
TAFFWA
TAF
KFWA 221723Z 2218/2318 25012G20KT P6SM BKN040 OVC120
      TEMPO 2218/2221 6SM -SHRA OVC040
     FM222200 26017KT P6SM BKN070
     FM230300 28008KT P6SM SCT250
     FM230600 VRB03KT P6SM SCT250
     FM231300 29012KT P6SM SCT250=

USA.gov is the U.S. government's official web portal to all federal, state and local government web resources and services.